Time;durP1;ratioP1;P1;durP2;ratioP2;P2;SDS_P1;SDS_P2;PMS_P1;PMS_P2;Temp;Humidity;BMP_temperature;BMP_pressure;BME280_temperature;BME280_humidity;BME280_pressure;Samples;Min_cycle;Max_cycle;Signal;HPM_P1;HPM_P2
2023/05/28 00:00:08;;;;;;;6.13;3.03;;;16.40;56.20;;;;;;5114512;28;20065;-71
2023/05/28 00:02:34;;;;;;;5.97;2.78;;;16.40;56.10;;;;;;5114790;28;20433;-71
2023/05/28 00:05:00;;;;;;;6.63;2.95;;;16.30;56.60;;;;;;5114245;28;20062;-72
2023/05/28 00:07:28;;;;;;;8.88;3.17;;;16.30;56.40;;;;;;5114919;28;20059;-71
2023/05/28 00:09:57;;;;;;;9.60;3.30;;;16.30;56.40;;;;;;5114173;28;20055;-72
2023/05/28 00:12:23;;;;;;;11.52;4.00;;;16.20;56.70;;;;;;5114514;28;20034;-72
2023/05/28 00:14:49;;;;;;;9.82;4.07;;;16.20;58.00;;;;;;5112822;28;20454;-71
2023/05/28 00:17:18;;;;;;;10.00;4.30;;;16.20;58.90;;;;;;5114442;28;20028;-72
2023/05/28 00:19:44;;;;;;;13.93;4.72;;;16.20;60.20;;;;;;5113927;28;20024;-72
2023/05/28 00:22:10;;;;;;;11.85;4.50;;;16.20;60.50;;;;;;5114341;28;20419;-71
2023/05/28 00:24:36;;;;;;;15.30;4.20;;;16.10;61.20;;;;;;5114017;27;20100;-71
2023/05/28 00:27:02;;;;;;;8.95;4.25;;;16.10;61.20;;;;;;5113133;28;20520;-71
2023/05/28 00:29:29;;;;;;;6.93;3.92;;;16.00;61.60;;;;;;5114166;28;20055;-72
2023/05/28 00:31:55;;;;;;;13.80;3.97;;;15.90;62.30;;;;;;5114069;28;20034;-71
2023/05/28 00:34:24;;;;;;;8.65;3.72;;;15.80;62.50;;;;;;5114084;28;20066;-72
2023/05/28 00:36:51;;;;;;;7.95;4.28;;;15.80;62.30;;;;;;5114009;28;20030;-71
2023/05/28 00:39:17;;;;;;;9.35;3.83;;;15.70;62.60;;;;;;5114089;28;20106;-71
2023/05/28 00:41:43;;;;;;;9.73;3.35;;;15.50;63.10;;;;;;5112655;28;20078;-71
2023/05/28 00:44:08;;;;;;;9.13;4.22;;;15.50;63.40;;;;;;5113507;28;20481;-71
2023/05/28 00:46:35;;;;;;;8.07;3.40;;;15.50;63.40;;;;;;5113393;28;20404;-71
2023/05/28 00:49:01;;;;;;;12.40;4.13;;;15.50;63.70;;;;;;5113505;28;20019;-71
2023/05/28 00:51:28;;;;;;;8.00;3.42;;;15.50;63.50;;;;;;5113551;28;20391;-71
2023/05/28 00:53:54;;;;;;;8.35;3.75;;;15.40;63.80;;;;;;5113141;28;20028;-71
2023/05/28 00:56:22;;;;;;;11.63;3.78;;;15.20;64.10;;;;;;5113442;28;20030;-71
2023/05/28 00:58:48;;;;;;;8.43;3.60;;;15.20;64.70;;;;;;5113221;28;20061;-71
2023/05/28 01:01:14;;;;;;;6.85;3.75;;;15.10;65.20;;;;;;5113501;28;20031;-71
2023/05/28 01:03:40;;;;;;;11.88;3.88;;;15.10;65.00;;;;;;5113872;28;20088;-71
2023/05/28 01:06:12;;;;;;;10.32;3.58;;;15.10;65.20;;;;;;5113134;28;20134;-71
2023/05/28 01:08:39;;;;;;;8.70;4.13;;;15.10;65.00;;;;;;5113637;28;20523;-71
2023/05/28 01:11:08;;;;;;;8.52;3.88;;;15.00;65.30;;;;;;5113329;27;20067;-71
2023/05/28 01:13:35;;;;;;;10.25;4.10;;;14.90;65.70;;;;;;5113751;28;20020;-71
2023/05/28 01:16:01;;;;;;;7.30;3.28;;;14.90;66.00;;;;;;5113060;28;20019;-71
2023/05/28 01:18:27;;;;;;;8.43;3.97;;;14.90;66.40;;;;;;5113372;28;20093;-71
2023/05/28 01:20:54;;;;;;;10.10;3.78;;;14.80;66.60;;;;;;5112744;28;20059;-71
2023/05/28 01:23:20;;;;;;;11.40;3.97;;;14.80;66.70;;;;;;5113230;28;20039;-71
2023/05/28 01:25:50;;;;;;;8.13;3.78;;;14.70;67.20;;;;;;5113254;28;20039;-71
2023/05/28 01:28:16;;;;;;;9.63;4.40;;;14.70;67.60;;;;;;5112866;28;20023;-71
2023/05/28 01:30:43;;;;;;;10.85;4.00;;;14.60;67.60;;;;;;5113053;28;20035;-72
2023/05/28 01:33:11;;;;;;;8.45;3.65;;;14.60;67.60;;;;;;5112099;28;20391;-72
2023/05/28 01:35:40;;;;;;;10.10;3.60;;;14.60;67.80;;;;;;5113027;28;20114;-71
2023/05/28 01:38:06;;;;;;;5.50;3.25;;;14.60;68.20;;;;;;5112485;28;20031;-72
2023/05/28 01:40:34;;;;;;;8.88;4.40;;;14.60;68.30;;;;;;5112897;28;20368;-70
2023/05/28 01:43:01;;;;;;;8.88;3.35;;;14.50;68.20;;;;;;5112565;28;20042;-70
2023/05/28 01:45:27;;;;;;;7.18;3.78;;;14.50;68.50;;;;;;5112651;28;20043;-72
2023/05/28 01:47:53;;;;;;;12.52;3.28;;;14.50;68.30;;;;;;5112675;28;20020;-72
2023/05/28 01:50:19;;;;;;;8.68;3.92;;;14.50;68.20;;;;;;5112454;28;20547;-72
2023/05/28 01:52:44;;;;;;;12.68;4.63;;;14.50;68.30;;;;;;5112915;28;20475;-70
2023/05/28 01:55:11;;;;;;;10.10;4.38;;;14.30;69.20;;;;;;5112783;28;20028;-70
2023/05/28 01:57:38;;;;;;;9.20;3.97;;;14.20;69.90;;;;;;5112874;28;20054;-70
2023/05/28 02:00:06;;;;;;;9.60;3.70;;;14.10;70.20;;;;;;5112592;28;20038;-70
2023/05/28 02:02:31;;;;;;;8.15;3.80;;;14.00;70.70;;;;;;5112830;28;20388;-71
2023/05/28 02:04:57;;;;;;;7.53;3.22;;;13.90;71.30;;;;;;5112480;28;20028;-72
2023/05/28 02:07:23;;;;;;;8.65;3.92;;;13.90;71.80;;;;;;5112577;28;20492;-70
2023/05/28 02:09:49;;;;;;;12.25;4.53;;;13.80;72.00;;;;;;5111392;28;20478;-71
2023/05/28 02:12:15;;;;;;;7.40;4.05;;;13.80;72.40;;;;;;5112352;28;20067;-72
2023/05/28 02:14:41;;;;;;;10.60;4.05;;;13.80;72.50;;;;;;5112772;28;20024;-72
2023/05/28 02:17:08;;;;;;;7.53;3.65;;;13.80;72.50;;;;;;5112430;28;20031;-72
2023/05/28 02:19:34;;;;;;;7.22;3.47;;;13.80;72.50;;;;;;5112743;28;20106;-71
2023/05/28 02:21:59;;;;;;;12.57;3.90;;;13.80;72.40;;;;;;5112280;28;20436;-72
2023/05/28 02:24:25;;;;;;;7.93;4.07;;;13.80;72.30;;;;;;5112449;28;20110;-72
2023/05/28 02:26:51;;;;;;;9.50;3.80;;;13.80;72.20;;;;;;5112352;28;20484;-71
2023/05/28 02:29:16;;;;;;;8.23;3.92;;;13.70;72.40;;;;;;5112201;28;20028;-70
2023/05/28 02:31:42;;;;;;;11.30;3.67;;;13.70;73.00;;;;;;5112570;28;20032;-72
2023/05/28 02:34:08;;;;;;;9.25;3.83;;;13.70;72.70;;;;;;5111920;28;20032;-72
2023/05/28 02:36:35;;;;;;;9.80;4.20;;;13.70;72.80;;;;;;5112611;28;20075;-71
2023/05/28 02:39:02;;;;;;;8.48;3.70;;;13.60;72.70;;;;;;5112061;28;20361;-72
2023/05/28 02:41:27;;;;;;;6.85;3.25;;;13.60;72.80;;;;;;5112569;28;20032;-72
2023/05/28 02:43:53;;;;;;;12.25;4.30;;;13.60;73.40;;;;;;5111934;28;20030;-74
2023/05/28 02:46:19;;;;;;;9.07;3.88;;;13.70;73.00;;;;;;5112463;28;20477;-71
2023/05/28 02:48:45;;;;;;;8.45;3.80;;;13.70;73.00;;;;;;5112417;28;20028;-71
2023/05/28 02:51:11;;;;;;;9.23;3.78;;;13.70;73.20;;;;;;5113990;28;20027;-72
2023/05/28 02:53:37;;;;;;;8.15;3.45;;;13.60;73.20;;;;;;5116028;28;20032;-72
2023/05/28 02:56:03;;;;;;;11.40;3.55;;;13.60;73.40;;;;;;5115675;28;20035;-72
2023/05/28 02:58:30;;;;;;;9.10;3.60;;;13.60;73.70;;;;;;5114543;28;20028;-72
2023/05/28 03:00:56;;;;;;;8.70;3.92;;;13.60;73.90;;;;;;5115576;28;20088;-72
2023/05/28 03:03:22;;;;;;;9.35;3.83;;;13.50;74.30;;;;;;5116286;28;20039;-73
2023/05/28 03:05:48;;;;;;;10.38;3.83;;;13.50;74.60;;;;;;5115831;28;20023;-72
2023/05/28 03:08:14;;;;;;;10.82;4.28;;;13.40;74.80;;;;;;5115309;28;20119;-72
2023/05/28 03:10:40;;;;;;;8.52;3.95;;;13.40;75.10;;;;;;5115501;28;20433;-71
2023/05/28 03:13:05;;;;;;;11.35;3.78;;;13.30;75.70;;;;;;5115326;28;20030;-72
2023/05/28 03:15:31;;;;;;;9.35;4.03;;;13.20;76.10;;;;;;5115321;28;20028;-71
2023/05/28 03:17:57;;;;;;;9.05;3.42;;;13.20;76.10;;;;;;5115256;28;20099;-72
2023/05/28 03:20:23;;;;;;;10.80;3.92;;;13.20;76.00;;;;;;5114993;28;20038;-72
2023/05/28 03:22:54;;;;;;;10.52;4.20;;;13.20;76.30;;;;;;5115490;28;20050;-71
2023/05/28 03:25:20;;;;;;;9.90;4.25;;;13.10;76.70;;;;;;5115117;28;20031;-71
2023/05/28 03:27:46;;;;;;;6.68;4.18;;;13.10;77.10;;;;;;5113642;28;20024;-71
2023/05/28 03:30:12;;;;;;;10.75;4.28;;;13.00;77.20;;;;;;5114674;28;20081;-71
2023/05/28 03:32:37;;;;;;;14.10;4.55;;;13.00;77.40;;;;;;5115309;28;20103;-71
2023/05/28 03:35:03;;;;;;;8.25;3.97;;;13.00;77.60;;;;;;5114888;28;20094;-71
2023/05/28 03:37:29;;;;;;;9.73;3.97;;;13.00;77.60;;;;;;5115410;28;20030;-71
2023/05/28 03:39:55;;;;;;;7.57;3.92;;;13.00;77.50;;;;;;5115138;28;20071;-71
2023/05/28 03:42:20;;;;;;;6.53;3.58;;;13.00;78.00;;;;;;5114698;28;20031;-72
2023/05/28 03:44:46;;;;;;;9.18;3.63;;;13.00;78.10;;;;;;5114933;28;20028;-71
2023/05/28 03:47:12;;;;;;;13.85;4.03;;;13.00;78.30;;;;;;5114741;28;20058;-71
2023/05/28 03:49:38;;;;;;;11.43;3.60;;;13.00;78.00;;;;;;5115052;28;20115;-71
2023/05/28 03:52:04;;;;;;;9.10;4.13;;;13.10;77.90;;;;;;5114533;28;20023;-71
2023/05/28 03:54:31;;;;;;;10.85;3.90;;;13.10;77.40;;;;;;5114858;28;20068;-71
2023/05/28 03:56:57;;;;;;;14.18;4.07;;;13.20;77.40;;;;;;5114649;28;20088;-71
2023/05/28 03:59:22;;;;;;;10.30;4.28;;;13.20;77.30;;;;;;5114336;28;20523;-71
2023/05/28 04:01:48;;;;;;;11.45;4.63;;;13.20;76.90;;;;;;5113693;28;20028;-71
2023/05/28 04:04:15;;;;;;;13.35;4.35;;;13.20;76.80;;;;;;5114266;28;20039;-71
2023/05/28 04:06:41;;;;;;;10.93;4.05;;;13.20;77.00;;;;;;5114612;28;20114;-72
2023/05/28 04:09:07;;;;;;;9.95;3.75;;;13.20;77.00;;;;;;5114222;28;20401;-72
2023/05/28 04:11:34;;;;;;;8.82;3.75;;;13.30;76.80;;;;;;5113327;28;20023;-72
2023/05/28 04:14:00;;;;;;;7.78;3.78;;;13.40;76.90;;;;;;5114132;28;20023;-74
2023/05/28 04:16:26;;;;;;;8.30;3.80;;;13.40;76.20;;;;;;5114360;28;20345;-71
2023/05/28 04:18:52;;;;;;;11.85;4.32;;;13.50;76.00;;;;;;5114456;28;20097;-70
2023/05/28 04:21:20;;;;;;;8.52;3.97;;;13.60;76.20;;;;;;5113819;28;20024;-71
2023/05/28 04:23:46;;;;;;;11.27;3.60;;;13.70;75.50;;;;;;5114238;28;20031;-71
2023/05/28 04:26:12;;;;;;;7.78;3.22;;;13.80;75.20;;;;;;5113559;28;20082;-70
2023/05/28 04:28:38;;;;;;;7.28;3.55;;;13.80;75.20;;;;;;5114254;28;20106;-72
2023/05/28 04:31:04;;;;;;;8.70;3.60;;;13.90;75.00;;;;;;5113941;28;20063;-72
2023/05/28 04:33:30;;;;;;;10.68;3.83;;;14.00;75.00;;;;;;5114577;28;20055;-72
2023/05/28 04:35:57;;;;;;;6.45;3.25;;;14.20;75.00;;;;;;5114057;28;20023;-72
2023/05/28 04:38:23;;;;;;;9.82;3.60;;;14.30;73.90;;;;;;5113590;28;20456;-72
2023/05/28 04:40:49;;;;;;;6.65;3.15;;;14.40;73.40;;;;;;5113803;28;20046;-72
2023/05/28 04:43:18;;;;;;;11.70;4.43;;;14.50;72.50;;;;;;5113561;28;20062;-72
2023/05/28 04:45:43;;;;;;;12.07;4.30;;;14.70;72.00;;;;;;5113428;28;20421;-72
2023/05/28 04:48:10;;;;;;;7.45;3.42;;;14.80;71.40;;;;;;5113484;28;20062;-72
2023/05/28 04:50:36;;;;;;;7.75;3.55;;;15.00;71.10;;;;;;5113792;28;20036;-72
2023/05/28 04:53:02;;;;;;;9.43;4.25;;;15.10;70.60;;;;;;5113572;28;20032;-71
2023/05/28 04:55:28;;;;;;;7.20;3.45;;;15.30;70.40;;;;;;5113785;28;20050;-72
2023/05/28 04:57:53;;;;;;;11.45;4.13;;;15.50;69.90;;;;;;5113615;28;20107;-71
2023/05/28 05:00:20;;;;;;;10.15;4.13;;;15.70;68.80;;;;;;5113167;28;20028;-72
2023/05/28 05:02:46;;;;;;;7.68;4.20;;;16.00;68.40;;;;;;5113688;28;20035;-71
2023/05/28 05:05:12;;;;;;;12.23;3.83;;;16.20;66.50;;;;;;5111759;28;20023;-71
2023/05/28 05:07:38;;;;;;;10.30;3.97;;;16.60;65.60;;;;;;5113098;28;20166;-72
2023/05/28 05:10:08;;;;;;;9.80;3.85;;;17.00;64.50;;;;;;5113279;28;20028;-75
2023/05/28 05:12:34;;;;;;;8.88;3.70;;;17.40;62.10;;;;;;5113295;28;20028;-72
2023/05/28 05:14:59;;;;;;;8.98;3.63;;;17.80;62.00;;;;;;5112927;28;20034;-72
2023/05/28 05:17:25;;;;;;;8.05;3.47;;;18.30;60.60;;;;;;5112674;28;20456;-71
2023/05/28 05:19:52;;;;;;;7.68;3.83;;;18.70;59.30;;;;;;5113134;28;20031;-71
2023/05/28 05:22:18;;;;;;;14.65;4.60;;;19.10;56.50;;;;;;5112925;28;20031;-71
2023/05/28 05:24:44;;;;;;;7.60;3.97;;;19.40;54.90;;;;;;5113359;28;20448;-70
2023/05/28 05:27:10;;;;;;;8.73;3.63;;;19.70;55.90;;;;;;5113106;28;20035;-71
2023/05/28 05:29:36;;;;;;;9.65;3.60;;;19.90;53.90;;;;;;5112692;28;20016;-71
2023/05/28 05:32:01;;;;;;;8.82;3.97;;;20.20;53.50;;;;;;5113161;28;20106;-71
2023/05/28 05:34:27;;;;;;;6.80;3.25;;;20.30;52.70;;;;;;5112395;28;20096;-71
2023/05/28 05:36:52;;;;;;;8.27;3.90;;;20.70;51.90;;;;;;5113149;28;20023;-71
2023/05/28 05:39:18;;;;;;;6.38;3.75;;;21.10;51.00;;;;;;5112398;28;20047;-71
2023/05/28 05:41:44;;;;;;;6.28;3.70;;;21.40;50.80;;;;;;5112872;28;20079;-71
2023/05/28 05:44:09;;;;;;;7.50;3.75;;;21.60;50.50;;;;;;5112567;28;20032;-71
2023/05/28 05:46:35;;;;;;;7.03;3.80;;;21.80;49.40;;;;;;5113873;28;20092;-71
2023/05/28 05:49:01;;;;;;;6.32;3.67;;;22.20;48.60;;;;;;5113645;28;20109;-72
2023/05/28 05:51:26;;;;;;;7.65;3.63;;;22.50;47.90;;;;;;5113104;28;20245;-73
2023/05/28 05:53:52;;;;;;;8.18;3.22;;;22.80;47.00;;;;;;5113519;28;20111;-72
2023/05/28 05:56:17;;;;;;;6.18;3.42;;;23.20;46.50;;;;;;5112681;28;20076;-72
2023/05/28 05:58:43;;;;;;;6.32;3.60;;;23.60;45.80;;;;;;5112911;28;20023;-72
2023/05/28 06:01:09;;;;;;;7.00;3.35;;;24.00;45.00;;;;;;5112466;28;20020;-72
2023/05/28 06:03:35;;;;;;;7.18;3.45;;;24.50;43.20;;;;;;5112560;28;20036;-72
2023/05/28 06:06:01;;;;;;;10.40;3.45;;;25.00;42.60;;;;;;5112495;28;20023;-70
2023/05/28 06:08:27;;;;;;;7.32;3.58;;;25.40;41.90;;;;;;5112114;28;20028;-71
2023/05/28 06:10:52;;;;;;;10.68;3.75;;;25.90;40.30;;;;;;5112657;28;20030;-71
2023/05/28 06:13:18;;;;;;;7.55;3.45;;;26.50;38.70;;;;;;5112125;28;20023;-71
2023/05/28 06:15:44;;;;;;;12.25;3.33;;;26.90;37.50;;;;;;5111084;28;20024;-71
2023/05/28 06:18:11;;;;;;;6.75;3.30;;;27.10;37.00;;;;;;5112246;28;20116;-70
2023/05/28 06:20:37;;;;;;;7.15;3.63;;;27.60;35.50;;;;;;5112576;28;20483;-70
2023/05/28 06:23:03;;;;;;;6.65;3.63;;;27.80;35.40;;;;;;5112651;28;20176;-71
2023/05/28 06:25:29;;;;;;;9.00;3.78;;;28.10;35.10;;;;;;5113049;28;20082;-72
2023/05/28 06:27:55;;;;;;;5.13;3.22;;;28.70;35.30;;;;;;5116531;28;20532;-70
2023/05/28 06:30:21;;;;;;;7.28;3.38;;;28.60;34.70;;;;;;5116110;28;20035;-72
2023/05/28 06:32:47;;;;;;;5.95;3.28;;;29.00;34.00;;;;;;5116624;28;20023;-72
2023/05/28 06:35:13;;;;;;;6.70;3.10;;;29.30;33.80;;;;;;5116190;28;20131;-72
2023/05/28 06:37:38;;;;;;;8.60;3.55;;;29.30;33.60;;;;;;5116561;28;20120;-72
2023/05/28 06:40:06;;;;;;;6.63;3.30;;;29.50;33.40;;;;;;5115986;28;20495;-72
2023/05/28 06:42:32;;;;;;;6.03;3.10;;;30.00;32.90;;;;;;5115811;28;20116;-72
2023/05/28 06:44:59;;;;;;;6.90;3.10;;;30.00;32.20;;;;;;5116080;28;20106;-72
2023/05/28 06:47:25;;;;;;;8.35;3.22;;;30.10;31.50;;;;;;5115795;28;20030;-72
2023/05/28 06:49:52;;;;;;;6.57;3.25;;;30.10;32.10;;;;;;5116202;28;20047;-72
2023/05/28 06:52:19;;;;;;;4.85;3.05;;;30.50;32.30;;;;;;5115804;28;20380;-72
2023/05/28 06:54:45;;;;;;;5.43;3.30;;;30.40;32.20;;;;;;5115729;28;20380;-72
2023/05/28 06:57:10;;;;;;;6.53;3.40;;;30.30;31.70;;;;;;5116031;28;20102;-72
2023/05/28 06:59:36;;;;;;;6.35;3.92;;;30.20;31.80;;;;;;5115591;28;20058;-73
2023/05/28 07:02:02;;;;;;;8.90;3.67;;;30.40;31.90;;;;;;5115830;28;20049;-71
2023/05/28 07:04:28;;;;;;;5.53;3.55;;;30.60;32.60;;;;;;5115469;28;20024;-71
2023/05/28 07:06:53;;;;;;;8.73;3.65;;;30.50;32.10;;;;;;5115689;28;20076;-71
2023/05/28 07:09:19;;;;;;;6.90;3.30;;;30.50;31.60;;;;;;5114630;28;20027;-71
2023/05/28 07:11:45;;;;;;;6.32;3.50;;;30.40;31.20;;;;;;5115820;28;20031;-71
2023/05/28 07:14:11;;;;;;;6.25;3.30;;;30.20;31.80;;;;;;5115604;28;20035;-71
2023/05/28 07:16:36;;;;;;;7.80;3.50;;;30.50;31.80;;;;;;5114882;28;20042;-71
2023/05/28 07:19:02;;;;;;;7.20;3.47;;;30.70;31.20;;;;;;5115269;28;20371;-71
2023/05/28 07:21:28;;;;;;;6.72;3.45;;;30.70;31.30;;;;;;5114929;28;20031;-72
2023/05/28 07:23:53;;;;;;;6.60;3.85;;;30.70;31.30;;;;;;5115299;28;20536;-72
2023/05/28 07:26:20;;;;;;;8.85;4.00;;;30.90;31.30;;;;;;5114866;28;20020;-73
2023/05/28 07:28:45;;;;;;;8.63;3.50;;;30.90;30.80;;;;;;5115373;28;20370;-72
2023/05/28 07:31:11;;;;;;;7.60;3.53;;;30.90;31.30;;;;;;5114817;28;20023;-72
2023/05/28 07:33:37;;;;;;;8.80;3.53;;;31.10;31.30;;;;;;5114900;28;20444;-72
2023/05/28 07:36:02;;;;;;;11.63;4.05;;;31.00;30.90;;;;;;5114759;28;20020;-71
2023/05/28 07:38:28;;;;;;;6.90;3.65;;;31.20;30.70;;;;;;5114834;28;20530;-72
2023/05/28 07:40:54;;;;;;;7.30;3.50;;;30.70;31.30;;;;;;5114666;28;20048;-72
2023/05/28 07:43:19;;;;;;;10.35;4.13;;;30.60;31.50;;;;;;5113085;28;20023;-72
2023/05/28 07:45:45;;;;;;;9.80;4.00;;;30.80;31.30;;;;;;5114847;28;20130;-72
2023/05/28 07:48:10;;;;;;;7.57;3.60;;;30.90;30.90;;;;;;5113698;28;20126;-72
2023/05/28 07:50:37;;;;;;;5.35;4.00;;;30.70;31.40;;;;;;5114094;28;20083;-72
2023/05/28 07:53:03;;;;;;;7.30;3.70;;;30.80;31.50;;;;;;5114835;28;20035;-72
2023/05/28 07:55:29;;;;;;;8.05;3.78;;;30.60;31.50;;;;;;5114685;28;20035;-72
2023/05/28 07:57:55;;;;;;;9.40;3.63;;;30.20;32.40;;;;;;5114846;28;20043;-72
2023/05/28 08:00:20;;;;;;;6.00;3.60;;;30.50;31.80;;;;;;5114093;28;20040;-72
2023/05/28 08:02:46;;;;;;;8.63;4.18;;;30.50;31.70;;;;;;5114621;28;20024;-72
2023/05/28 08:05:14;;;;;;;8.40;3.78;;;30.20;31.70;;;;;;5114695;28;20026;-72
2023/05/28 08:07:40;;;;;;;8.25;3.92;;;30.30;31.80;;;;;;5114106;28;20104;-72
2023/05/28 08:10:06;;;;;;;6.07;3.97;;;29.90;31.80;;;;;;5114550;28;20452;-72
2023/05/28 08:12:31;;;;;;;6.55;3.80;;;29.50;32.20;;;;;;5114201;28;20031;-72
2023/05/28 08:14:57;;;;;;;6.63;3.75;;;29.40;32.40;;;;;;5114565;28;20381;-72
2023/05/28 08:17:23;;;;;;;9.63;3.55;;;29.30;32.60;;;;;;5114320;28;20147;-72
2023/05/28 08:19:49;;;;;;;7.43;4.35;;;29.10;33.20;;;;;;5114131;28;20456;-72
2023/05/28 08:22:15;;;;;;;9.48;4.03;;;29.40;33.30;;;;;;5114156;28;20028;-72
2023/05/28 08:24:41;;;;;;;8.23;3.83;;;29.50;33.00;;;;;;5113874;28;20028;-72
2023/05/28 08:27:07;;;;;;;12.95;4.45;;;29.40;33.00;;;;;;5114199;28;20371;-72
2023/05/28 08:29:32;;;;;;;8.40;4.55;;;29.40;32.70;;;;;;5113552;28;20354;-73
2023/05/28 08:32:00;;;;;;;6.72;4.07;;;28.90;33.00;;;;;;5114084;28;20456;-72
2023/05/28 08:34:26;;;;;;;7.32;3.88;;;28.70;34.10;;;;;;5113629;28;20039;-72
2023/05/28 08:36:52;;;;;;;12.93;5.00;;;28.60;33.80;;;;;;5112794;28;20027;-72
2023/05/28 08:39:18;;;;;;;11.05;4.47;;;28.40;33.70;;;;;;5113707;28;20114;-72
2023/05/28 08:41:44;;;;;;;7.78;4.00;;;28.20;34.50;;;;;;5113396;28;20116;-71
2023/05/28 08:44:10;;;;;;;9.38;4.22;;;27.90;34.50;;;;;;5113842;28;20031;-71
2023/05/28 08:46:37;;;;;;;7.82;3.83;;;27.40;35.40;;;;;;5113106;28;20379;-71
2023/05/28 08:49:03;;;;;;;9.35;4.43;;;27.10;35.30;;;;;;5113097;28;20031;-71
2023/05/28 08:51:35;;;;;;;9.18;4.40;;;26.80;37.00;;;;;;5113070;28;20035;-70
2023/05/28 08:54:01;;;;;;;11.18;4.32;;;26.60;36.50;;;;;;5113686;28;20468;-72
2023/05/28 08:56:27;;;;;;;7.15;3.88;;;26.20;37.50;;;;;;5113404;28;20111;-73
2023/05/28 08:58:53;;;;;;;9.77;4.28;;;26.00;37.90;;;;;;5113176;28;20019;-72
2023/05/28 09:01:19;;;;;;;10.07;4.32;;;26.00;38.50;;;;;;5113271;28;20032;-72
2023/05/28 09:03:45;;;;;;;9.77;4.43;;;25.80;38.60;;;;;;5113034;28;20054;-72
2023/05/28 09:06:12;;;;;;;12.68;4.15;;;25.80;39.20;;;;;;5113578;28;20384;-72
2023/05/28 09:08:38;;;;;;;7.07;3.90;;;25.90;39.50;;;;;;5113016;28;20467;-73
2023/05/28 09:11:18;;;;;;;9.68;4.07;;;26.00;39.10;;;;;;5113781;28;20032;-72
2023/05/28 09:13:47;;;;;;;8.77;4.25;;;25.90;39.00;;;;;;5112848;28;20023;-72
2023/05/28 09:16:24;;;;;;;10.80;4.25;;;25.90;39.10;;;;;;5113541;28;20034;-73
2023/05/28 09:18:51;;;;;;;9.60;4.13;;;25.70;39.00;;;;;;5112905;28;20472;-72
2023/05/28 09:21:18;;;;;;;10.23;4.90;;;25.40;39.20;;;;;;5113141;28;20488;-72
2023/05/28 09:23:46;;;;;;;8.88;4.20;;;25.10;40.10;;;;;;5112839;28;20442;-72
2023/05/28 09:26:12;;;;;;;8.15;4.85;;;24.90;40.80;;;;;;5113185;28;20498;-72
2023/05/28 09:28:43;;;;;;;11.23;4.68;;;24.90;41.40;;;;;;5112770;28;20031;-71
2023/05/28 09:31:09;;;;;;;10.63;4.78;;;24.90;41.00;;;;;;5112624;28;20059;-72
2023/05/28 09:33:42;;;;;;;7.63;4.28;;;24.90;41.60;;;;;;5112639;28;20108;-72
2023/05/28 09:36:08;;;;;;;10.50;5.00;;;24.90;41.30;;;;;;5112998;28;20031;-72
2023/05/28 09:38:41;;;;;;;13.57;4.60;;;24.90;41.90;;;;;;5110072;28;20124;-72
2023/05/28 09:41:34;;;;;;;9.05;4.70;;;24.70;42.40;;;;;;5112295;28;20111;-72
2023/05/28 09:44:01;;;;;;;9.15;4.75;;;24.70;42.30;;;;;;5112855;28;20034;-72
2023/05/28 09:46:28;;;;;;;8.60;5.00;;;24.50;42.50;;;;;;5112558;28;20065;-72
2023/05/28 09:48:54;;;;;;;11.73;4.40;;;24.50;43.90;;;;;;5112841;28;20032;-72
2023/05/28 09:51:23;;;;;;;9.80;4.45;;;24.50;43.50;;;;;;5112865;28;20149;-72
2023/05/28 09:53:53;;;;;;;8.98;4.43;;;24.50;43.10;;;;;;5112977;28;20028;-72
2023/05/28 09:56:20;;;;;;;8.65;4.68;;;24.40;44.10;;;;;;5113046;28;20072;-71
2023/05/28 09:58:51;;;;;;;9.85;4.68;;;24.40;43.00;;;;;;5112372;28;20033;-72
2023/05/28 10:01:20;;;;;;;10.82;4.45;;;24.20;43.30;;;;;;5117002;28;20065;-72
2023/05/28 10:03:52;;;;;;;8.32;4.43;;;24.10;43.50;;;;;;5116481;28;20344;-72
2023/05/28 10:06:21;;;;;;;12.27;4.82;;;24.20;44.10;;;;;;5116396;28;20471;-71
2023/05/28 10:08:50;;;;;;;16.20;5.55;;;24.20;44.30;;;;;;5116435;28;20055;-72
2023/05/28 10:11:21;;;;;;;11.23;4.90;;;24.20;44.70;;;;;;5116580;28;20102;-72
2023/05/28 10:13:48;;;;;;;13.55;4.70;;;24.20;44.40;;;;;;5116567;28;20110;-72
2023/05/28 10:16:13;;;;;;;9.75;4.97;;;24.20;44.50;;;;;;5116513;28;20487;-72
2023/05/28 10:18:40;;;;;;;11.50;5.22;;;24.30;44.70;;;;;;5115901;28;20035;-72
2023/05/28 10:21:07;;;;;;;8.88;4.53;;;24.30;44.80;;;;;;5116712;28;20429;-72
2023/05/28 10:23:33;;;;;;;11.88;5.05;;;24.20;44.30;;;;;;5116155;28;20126;-72
2023/05/28 10:25:59;;;;;;;9.18;4.50;;;24.20;44.30;;;;;;5116566;28;20103;-72
2023/05/28 10:28:25;;;;;;;10.70;4.80;;;24.10;45.80;;;;;;5116600;27;20111;-72
2023/05/28 10:31:04;;;;;;;10.32;4.85;;;24.10;45.10;;;;;;5116051;28;20031;-72
2023/05/28 10:33:30;;;;;;;10.38;5.15;;;24.30;45.60;;;;;;5115958;28;20115;-72
2023/05/28 10:35:59;;;;;;;9.80;4.65;;;24.30;44.90;;;;;;5116281;28;20028;-72
2023/05/28 10:38:25;;;;;;;12.00;5.03;;;24.20;45.30;;;;;;5116409;28;20253;-72
2023/05/28 10:40:51;;;;;;;9.02;4.10;;;24.30;45.80;;;;;;5115598;28;20119;-72
2023/05/28 10:43:47;;;;;;;7.97;4.10;;;24.30;46.00;;;;;;5116279;28;20024;-72
2023/05/28 10:46:17;;;;;;;13.07;4.85;;;24.40;45.80;;;;;;5116354;28;20055;-72
2023/05/28 10:49:02;;;;;;;;;;;24.50;46.20;;;;;;5116150;28;20040;-72
2023/05/28 10:51:46;;;;;;;10.05;4.20;;;24.30;45.10;;;;;;5116244;28;19918;-72
2023/05/28 10:54:15;;;;;;;11.38;5.10;;;24.50;45.90;;;;;;5115735;28;20523;-72
2023/05/28 10:57:07;;;;;;;7.82;4.10;;;24.40;45.30;;;;;;5115423;27;20320;-72
2023/05/28 10:59:38;;;;;;;12.10;4.68;;;24.30;45.70;;;;;;5115137;28;20525;-72
2023/05/28 11:02:06;;;;;;;9.02;4.20;;;24.50;47.40;;;;;;5115505;28;20074;-72
2023/05/28 11:04:34;;;;;;;11.10;5.00;;;24.40;45.70;;;;;;5114125;28;20110;-72
2023/05/28 11:06:59;;;;;;;13.23;5.25;;;24.40;45.70;;;;;;5115710;28;20107;-72
2023/05/28 11:09:25;;;;;;;10.80;4.47;;;24.50;46.00;;;;;;5115374;28;20054;-72
2023/05/28 11:11:51;;;;;;;7.07;4.15;;;24.50;46.40;;;;;;5114618;28;20031;-70
2023/05/28 11:14:16;;;;;;;10.30;4.75;;;24.60;47.20;;;;;;5115530;28;20478;-72
2023/05/28 11:16:42;;;;;;;8.40;4.40;;;24.70;45.80;;;;;;5115223;28;20352;-72
2023/05/28 11:19:09;;;;;;;8.07;4.65;;;24.70;46.10;;;;;;5115530;28;20023;-72
2023/05/28 11:21:50;;;;;;;9.75;4.85;;;24.60;45.10;;;;;;5115094;28;20185;-72
2023/05/28 11:24:15;;;;;;;10.75;4.07;;;24.50;45.30;;;;;;5115463;28;20118;-72
2023/05/28 11:26:41;;;;;;;7.50;4.65;;;24.50;45.60;;;;;;5114690;28;20165;-72
2023/05/28 11:29:06;;;;;;;10.35;4.95;;;24.60;45.40;;;;;;5115286;28;20569;-72
2023/05/28 11:31:40;;;;;;;9.88;4.82;;;24.70;46.50;;;;;;5114892;28;20028;-72
2023/05/28 11:34:07;;;;;;;8.82;4.80;;;24.70;45.60;;;;;;5115174;28;20028;-72
2023/05/28 11:36:43;;;;;;;8.52;4.57;;;24.70;45.20;;;;;;5114652;28;20031;-72
2023/05/28 11:39:10;;;;;;;7.53;4.38;;;24.60;45.40;;;;;;5115069;27;20028;-72
2023/05/28 11:41:36;;;;;;;9.10;4.70;;;24.50;45.50;;;;;;5114415;28;20066;-72
2023/05/28 11:44:01;;;;;;;10.45;4.80;;;24.50;45.60;;;;;;5114847;28;20464;-71
2023/05/28 11:46:27;;;;;;;10.35;4.38;;;24.60;45.80;;;;;;5115011;28;20051;-72
2023/05/28 11:48:53;;;;;;;7.70;4.32;;;24.60;44.60;;;;;;5114617;28;20024;-71
2023/05/28 11:51:20;;;;;;;8.68;4.65;;;24.60;45.20;;;;;;5114642;28;20388;-71
2023/05/28 11:53:46;;;;;;;10.68;4.18;;;24.60;45.50;;;;;;5114514;28;20031;-72
2023/05/28 11:56:12;;;;;;;14.25;4.72;;;24.70;46.00;;;;;;5114909;28;20085;-71
2023/05/28 11:58:43;;;;;;;11.35;4.38;;;24.70;46.40;;;;;;5113186;28;20035;-72
2023/05/28 12:01:16;;;;;;;11.07;4.57;;;24.80;45.90;;;;;;5114324;28;20039;-71
2023/05/28 12:03:42;;;;;;;9.65;4.25;;;24.60;44.90;;;;;;5114332;28;20024;-72
2023/05/28 12:06:08;;;;;;;8.15;4.45;;;24.50;45.50;;;;;;5114677;28;20075;-71
2023/05/28 12:08:33;;;;;;;10.55;4.78;;;24.30;47.00;;;;;;5114410;28;20414;-71
2023/05/28 12:11:03;;;;;;;9.02;5.00;;;24.20;46.50;;;;;;5114313;28;20036;-71
2023/05/28 12:13:33;;;;;;;8.88;4.93;;;24.20;46.40;;;;;;5114500;28;20019;-72
2023/05/28 12:16:09;;;;;;;9.00;4.47;;;24.20;45.90;;;;;;5112696;28;20032;-72
2023/05/28 12:18:40;;;;;;;8.18;5.05;;;24.20;46.20;;;;;;5114099;28;20186;-73
2023/05/28 12:21:10;;;;;;;12.90;4.32;;;24.20;45.80;;;;;;5114379;28;20384;-72
2023/05/28 12:23:36;;;;;;;9.43;4.35;;;24.30;45.90;;;;;;5111703;28;20153;-72
2023/05/28 12:26:02;;;;;;;10.98;4.10;;;24.20;44.80;;;;;;5114310;28;20142;-71
2023/05/28 12:28:28;;;;;;;9.75;4.90;;;24.20;45.20;;;;;;5114250;28;20074;-72
2023/05/28 12:30:55;;;;;;;11.35;5.13;;;24.20;45.20;;;;;;5113729;28;20480;-71
2023/05/28 12:33:22;;;;;;;13.60;4.95;;;24.10;45.10;;;;;;5114171;28;20019;-71
2023/05/28 12:35:47;;;;;;;9.77;4.40;;;24.00;45.10;;;;;;5113605;28;20027;-72
2023/05/28 12:38:14;;;;;;;10.57;4.43;;;23.90;44.80;;;;;;5113992;28;20035;-71
2023/05/28 12:40:40;;;;;;;10.82;5.03;;;23.80;44.50;;;;;;5113425;28;20424;-72